createdAt,value
2023-06-18T00:02:57.157Z,4.82
2023-06-18T00:08:06.652Z,4.82
2023-06-18T00:13:16.373Z,4.81
2023-06-18T00:18:24.853Z,4.81
2023-06-18T00:23:34.629Z,4.76
2023-06-18T00:28:44.368Z,4.76
2023-06-18T00:33:52.954Z,4.82
2023-06-18T00:39:01.344Z,4.82
2023-06-18T00:44:10.472Z,4.76
2023-06-18T00:49:19.627Z,4.76
2023-06-18T00:54:29.376Z,4.76
2023-06-18T00:59:39.089Z,4.76
2023-06-18T01:04:50.158Z,4.83
2023-06-18T02:01:29.946Z,4.74
2023-06-18T02:06:38.299Z,4.77
2023-06-18T02:11:47.397Z,4.77
2023-06-18T02:16:56.568Z,4.71
2023-06-18T02:22:06.288Z,4.76
2023-06-18T02:27:14.791Z,4.76
2023-06-18T02:32:24.088Z,4.69
2023-06-18T02:37:33.679Z,4.69
2023-06-18T02:42:42.192Z,4.72
2023-06-18T02:47:50.258Z,4.72
2023-06-18T02:52:59.860Z,4.69
2023-06-18T02:58:08.244Z,4.69
2023-06-18T03:03:17.970Z,4.76
2023-06-18T03:08:26.498Z,4.76
2023-06-18T03:13:36.216Z,4.67
2023-06-18T03:18:44.913Z,4.67
2023-06-18T03:23:53.275Z,4.69
2023-06-18T03:29:01.668Z,4.69
2023-06-18T03:34:10.158Z,4.69
2023-06-18T03:39:19.890Z,4.69
2023-06-18T03:44:29.656Z,4.66
2023-06-18T03:49:38.124Z,4.66
2023-06-18T03:54:47.246Z,4.71
2023-06-18T03:59:56.425Z,4.71
2023-06-18T04:05:05.726Z,4.73
2023-06-18T04:10:14.671Z,4.73
2023-06-18T04:15:24.426Z,4.66
2023-06-18T04:20:32.938Z,4.66
2023-06-18T04:25:41.772Z,4.71
2023-06-18T04:30:49.882Z,4.71
2023-06-18T04:35:58.298Z,4.66
2023-06-18T04:41:08.091Z,4.66
2023-06-18T04:46:16.534Z,4.69
2023-06-18T04:51:25.004Z,4.69
2023-06-18T04:56:34.800Z,4.65
2023-06-18T05:01:43.273Z,4.65
2023-06-18T05:06:51.961Z,4.69
2023-06-18T05:12:01.545Z,4.69
2023-06-18T05:17:10.252Z,4.65
2023-06-18T06:08:40.066Z,4.69
2023-06-18T06:13:48.395Z,4.68
2023-06-18T06:18:57.517Z,4.68
2023-06-18T06:24:07.420Z,4.66
2023-06-18T06:29:16.996Z,4.66
2023-06-18T06:34:25.596Z,4.68
2023-06-18T06:39:34.677Z,4.68
2023-06-18T06:44:43.104Z,4.69
2023-06-18T06:49:51.644Z,4.69
2023-06-18T06:55:00.195Z,4.71
2023-06-18T07:00:09.830Z,4.71
2023-06-18T07:05:19.628Z,4.68
2023-06-18T07:10:28.727Z,4.68
2023-06-18T07:15:36.536Z,4.68
2023-06-18T07:20:45.707Z,4.68
2023-06-18T07:25:54.145Z,4.77
2023-06-18T07:31:02.667Z,4.77
2023-06-18T07:36:12.396Z,4.71
2023-06-18T07:41:20.885Z,4.71
2023-06-18T07:46:30.303Z,4.71
2023-06-18T07:51:39.150Z,4.71
2023-06-18T07:56:47.874Z,4.8
2023-06-18T08:01:57.039Z,4.8
2023-06-18T08:07:06.465Z,4.77
2023-06-18T08:12:15.006Z,4.77
2023-06-18T08:17:24.857Z,4.81
2023-06-18T08:22:33.881Z,4.81
2023-06-18T08:27:42.960Z,4.81
2023-06-18T08:32:52.901Z,4.81
2023-06-18T08:38:01.911Z,4.8
2023-06-18T08:43:10.312Z,4.8
2023-06-18T08:48:35.813Z,4.78
2023-06-18T08:53:27.931Z,4.78
2023-06-18T08:58:36.362Z,4.83
2023-06-18T09:03:46.188Z,4.83
2023-06-18T09:08:54.624Z,4.81
2023-06-18T09:14:03.761Z,4.8
2023-06-18T09:19:13.522Z,4.8
2023-06-18T09:24:22.405Z,4.82
2023-06-18T09:29:31.088Z,4.82
2023-06-18T09:34:40.276Z,4.83
2023-06-18T09:39:49.349Z,4.83
2023-06-18T09:44:57.863Z,4.82
2023-06-18T09:50:07.638Z,4.82
2023-06-18T09:55:17.076Z,4.81
2023-06-18T10:51:58.379Z,4.85
2023-06-18T10:57:06.795Z,4.83
2023-06-18T11:02:16.731Z,4.83
2023-06-18T11:07:26.320Z,4.86
2023-06-18T11:12:35.440Z,4.86
2023-06-18T11:17:43.474Z,4.93
2023-06-18T11:22:51.728Z,4.93
2023-06-18T11:28:00.259Z,4.91
2023-06-18T11:33:09.478Z,4.91
2023-06-18T11:38:18.460Z,4.9
2023-06-18T11:43:26.997Z,4.9
2023-06-18T11:48:36.689Z,4.88
2023-06-18T11:53:47.477Z,4.88
2023-06-18T11:58:57.887Z,4.94
2023-06-18T12:04:03.752Z,4.94
2023-06-18T12:09:12.484Z,4.93
2023-06-18T12:14:21.029Z,4.93
2023-06-18T12:19:29.547Z,4.91
2023-06-18T12:24:37.616Z,4.91
2023-06-18T12:29:46.497Z,4.92
2023-06-18T12:47:41.488Z,4.86
2023-06-18T12:52:50.780Z,4.86
2023-06-18T12:58:00.528Z,4.93
2023-06-18T13:03:10.192Z,4.93
2023-06-18T13:08:18.870Z,4.95
2023-06-18T13:13:27.255Z,4.95
2023-06-18T13:18:36.388Z,4.96
2023-06-18T13:23:45.503Z,4.96
2023-06-18T13:28:55.293Z,4.92
2023-06-18T13:34:03.733Z,4.92
2023-06-18T13:39:12.853Z,4.93
2023-06-18T13:44:21.332Z,4.93
2023-06-18T13:49:30.475Z,4.92
2023-06-18T13:54:38.939Z,4.92
2023-06-18T13:59:47.427Z,4.93
2023-06-18T14:04:57.380Z,4.93
2023-06-18T14:10:06.591Z,4.92
2023-06-18T14:15:14.126Z,4.92
2023-06-18T14:20:23.889Z,4.99
2023-06-18T14:25:32.365Z,4.99
2023-06-18T14:30:42.789Z,4.92
2023-06-18T14:35:51.905Z,4.92
2023-06-18T14:41:00.377Z,4.97
2023-06-18T14:46:09.167Z,4.97
2023-06-18T14:51:18.628Z,4.97
2023-06-18T14:56:27.798Z,4.98
2023-06-18T15:01:39.216Z,4.98
2023-06-18T15:06:47.815Z,5
2023-06-18T15:11:53.224Z,5
2023-06-18T15:17:01.783Z,4.99
2023-06-18T15:22:11.432Z,4.99
2023-06-18T15:27:20.560Z,4.95
2023-06-18T15:32:29.244Z,4.95
2023-06-18T15:37:44.595Z,4.9
2023-06-18T15:42:53.031Z,4.9
2023-06-18T15:48:02.558Z,4.94
2023-06-18T15:53:10.640Z,4.94
2023-06-18T15:58:19.110Z,4.94
2023-06-18T16:03:27.592Z,4.94
2023-06-18T16:08:37.398Z,4.97
2023-06-18T17:00:04.804Z,4.97
2023-06-18T17:05:13.189Z,4.97
2023-06-18T17:10:21.710Z,4.92
2023-06-18T17:15:30.175Z,4.92
2023-06-18T17:20:39.902Z,4.95
2023-06-18T17:25:50.957Z,4.95
2023-06-18T17:31:00.712Z,4.85
2023-06-18T17:36:09.839Z,4.85
2023-06-18T17:41:19.578Z,4.93
2023-06-18T17:46:28.980Z,4.93
2023-06-18T17:51:37.810Z,4.92
2023-06-18T17:56:46.311Z,4.92
2023-06-18T18:01:54.510Z,4.89
2023-06-18T18:07:02.596Z,4.89
2023-06-18T18:12:11.793Z,4.9
2023-06-18T18:17:21.030Z,4.93
2023-06-18T18:22:30.623Z,4.93
2023-06-18T18:27:43.597Z,4.89
2023-06-18T18:32:52.269Z,4.89
2023-06-18T18:38:00.556Z,4.92
2023-06-18T18:43:09.652Z,4.92
2023-06-18T18:48:18.153Z,4.93
2023-06-18T18:53:26.634Z,4.93
2023-06-18T18:58:36.525Z,4.87
2023-06-18T19:03:46.359Z,4.87
2023-06-18T19:08:55.252Z,4.86
2023-06-18T19:14:05.052Z,4.86
2023-06-18T19:19:13.523Z,4.91
2023-06-18T19:24:22.200Z,4.91
2023-06-18T19:29:30.445Z,4.86
2023-06-18T19:34:38.942Z,4.86
2023-06-18T19:39:47.459Z,4.9
2023-06-18T19:44:55.956Z,4.9
2023-06-18T19:50:04.375Z,4.91
2023-06-18T19:55:12.854Z,4.91
2023-06-18T20:00:24.307Z,4.93
2023-06-18T20:05:31.737Z,4.93
2023-06-18T20:10:41.526Z,4.92
2023-06-18T21:02:15.573Z,4.9
2023-06-18T21:07:24.497Z,4.9
2023-06-18T21:12:34.124Z,4.88
2023-06-18T21:17:42.862Z,4.88
2023-06-18T21:22:51.789Z,4.91
2023-06-18T21:28:00.875Z,4.91
2023-06-18T21:33:09.497Z,4.94
2023-06-18T21:38:19.144Z,4.94
2023-06-18T21:43:28.234Z,4.92
2023-06-18T21:48:37.992Z,4.87
2023-06-18T21:53:47.122Z,4.87
2023-06-18T21:58:56.229Z,4.88
2023-06-18T22:04:06.221Z,4.88
2023-06-18T22:09:14.470Z,4.91
2023-06-18T22:14:23.587Z,4.91
2023-06-18T22:19:33.371Z,4.96
2023-06-18T22:24:42.690Z,4.96
2023-06-18T22:29:53.947Z,4.93
2023-06-18T22:34:59.460Z,4.93
2023-06-18T22:40:07.959Z,4.77
2023-06-18T22:45:15.796Z,4.77
2023-06-18T22:50:26.473Z,4.72
2023-06-18T22:55:32.720Z,4.72
2023-06-18T23:00:42.492Z,4.69
2023-06-18T23:05:51.735Z,4.69
2023-06-18T23:11:00.755Z,4.66
2023-06-18T23:16:10.636Z,4.66
2023-06-18T23:21:20.221Z,4.66
2023-06-18T23:26:30.628Z,4.66
2023-06-18T23:31:40.759Z,4.67
2023-06-18T23:36:48.892Z,4.67
2023-06-18T23:41:57.420Z,4.63
2023-06-18T23:47:05.848Z,4.63
2023-06-18T23:52:14.968Z,4.63
2023-06-18T23:57:23.424Z,4.63
